Time;durP1;ratioP1;P1;durP2;ratioP2;P2;SDS_P1;SDS_P2;PMS_P1;PMS_P2;Temp;Humidity;BMP_temperature;BMP_pressure;BME280_temperature;BME280_humidity;BME280_pressure;Samples;Min_cycle;Max_cycle;Signal;HPM_P1;HPM_P2
2024/03/31 00:00:04;;;;;;;25.30;5.63;;;;;;;12.54;57.36;94579.72;4961093;28;20991;-72
2024/03/31 00:02:30;;;;;;;20.67;6.50;;;;;;;12.52;57.72;94584.28;4966310;28;20633;-71
2024/03/31 00:04:55;;;;;;;14.20;5.00;;;;;;;12.44;58.42;94610.38;4960469;28;20805;-68
2024/03/31 00:07:21;;;;;;;20.10;5.43;;;;;;;12.34;58.48;94615.53;4966556;28;20437;-71
2024/03/31 00:09:48;;;;;;;17.40;5.70;;;;;;;12.26;58.27;94646.88;4962351;28;20213;-72
2024/03/31 00:12:13;;;;;;;20.63;6.03;;;;;;;12.23;58.20;94662.88;4963585;28;20904;-72
2024/03/31 00:14:39;;;;;;;25.70;4.63;;;;;;;12.22;58.47;94679.63;4967755;28;20453;-71
2024/03/31 00:17:05;;;;;;;18.73;4.20;;;;;;;12.10;58.98;94684.03;4967848;28;20289;-70
2024/03/31 00:19:30;;;;;;;16.53;5.50;;;;;;;12.18;58.85;94678.19;4960656;28;20186;-71
2024/03/31 00:21:55;;;;;;;17.73;4.23;;;;;;;12.29;58.64;94692.16;4962477;28;20174;-71
2024/03/31 00:24:21;;;;;;;17.00;4.50;;;;;;;12.22;58.87;94700.66;4973089;28;20641;-71
2024/03/31 00:26:46;;;;;;;16.50;4.90;;;;;;;12.06;59.03;94704.47;4966945;28;20268;-73
2024/03/31 00:29:11;;;;;;;32.47;5.50;;;;;;;11.97;59.52;94720.94;4968679;28;20212;-70
2024/03/31 00:31:37;;;;;;;27.73;4.50;;;;;;;11.96;59.24;94736.84;4959719;28;20213;-71
2024/03/31 00:34:02;;;;;;;17.93;4.67;;;;;;;12.05;59.26;94741.41;4965773;28;20299;-69
2024/03/31 00:36:28;;;;;;;13.30;3.73;;;;;;;12.06;58.83;94750.97;4964406;28;20199;-71
2024/03/31 00:38:53;;;;;;;17.50;5.40;;;;;;;12.04;59.56;94751.06;4966192;28;20269;-70
2024/03/31 00:41:18;;;;;;;11.30;4.13;;;;;;;12.10;58.98;94756.84;4963871;28;20232;-70
2024/03/31 00:43:44;;;;;;;19.97;4.73;;;;;;;12.00;58.70;94757.53;4957777;28;20185;-70
2024/03/31 00:46:09;;;;;;;17.10;3.37;;;;;;;12.08;58.70;94757.78;4969361;28;21013;-71
2024/03/31 00:48:34;;;;;;;16.07;4.27;;;;;;;12.00;59.08;94760.16;4960866;28;20272;-70
2024/03/31 00:51:00;;;;;;;8.93;3.97;;;;;;;12.02;59.24;94750.38;4962077;28;20213;-71
2024/03/31 00:53:25;;;;;;;15.07;4.13;;;;;;;11.92;59.22;94751.16;4967722;28;20249;-70
2024/03/31 00:55:50;;;;;;;12.97;3.67;;;;;;;12.02;58.32;94762.66;4963742;28;20197;-69
2024/03/31 00:58:16;;;;;;;15.30;4.40;;;;;;;11.99;58.63;94763.72;4966438;28;20341;-71
2024/03/31 01:00:41;;;;;;;24.47;4.40;;;;;;;11.94;59.81;94771.13;4961673;28;20263;-71
2024/03/31 01:03:07;;;;;;;18.57;4.07;;;;;;;12.01;59.31;94761.81;4967301;28;20280;-69
2024/03/31 01:05:34;;;;;;;13.57;3.93;;;;;;;11.97;59.33;94764.78;4960153;28;20223;-69
2024/03/31 01:07:59;;;;;;;16.27;3.70;;;;;;;12.00;59.23;94767.19;4966171;28;20437;-71
2024/03/31 01:10:25;;;;;;;17.40;4.30;;;;;;;12.04;59.24;94764.22;4964543;28;20476;-70
2024/03/31 01:12:50;;;;;;;17.47;4.40;;;;;;;12.04;58.91;94766.84;4954214;28;20791;-70
2024/03/31 01:15:17;;;;;;;13.27;3.63;;;;;;;12.01;58.99;94759.19;4961591;28;20201;-70
2024/03/31 01:17:42;;;;;;;15.10;3.80;;;;;;;12.00;59.02;94760.16;4964368;28;20192;-71
2024/03/31 01:20:08;;;;;;;17.83;5.73;;;;;;;12.04;59.48;94735.28;4955766;28;20465;-70
2024/03/31 01:22:36;;;;;;;9.60;3.37;;;;;;;11.97;60.50;94685.94;4967074;28;20181;-71
2024/03/31 01:25:02;;;;;;;18.97;3.53;;;;;;;11.93;60.53;94642.44;4972401;28;20248;-71
2024/03/31 01:27:27;;;;;;;13.07;3.70;;;;;;;11.90;60.98;94587.47;4968623;28;20555;-69
2024/03/31 01:29:52;;;;;;;16.70;3.97;;;;;;;11.86;61.50;94569.28;4964856;28;20248;-69
2024/03/31 01:32:18;;;;;;;16.93;3.73;;;;;;;11.55;61.79;94576.09;4957681;28;20308;-69
2024/03/31 01:34:44;;;;;;;18.60;3.17;;;;;;;11.41;62.38;94563.19;4953851;28;20189;-69
2024/03/31 01:37:10;;;;;;;13.63;4.40;;;;;;;11.29;63.39;94562.34;4965886;28;20263;-70
2024/03/31 01:39:35;;;;;;;9.73;3.40;;;;;;;11.04;63.92;94529.22;4956512;28;20931;-69
2024/03/31 01:42:01;;;;;;;21.63;4.00;;;;;;;11.15;64.71;94512.63;4968230;28;20182;-71
2024/03/31 01:44:26;;;;;;;21.27;4.83;;;;;;;11.44;63.64;94516.50;4957747;28;20245;-70
2024/03/31 01:46:52;;;;;;;11.90;3.53;;;;;;;11.32;63.14;94519.25;4983557;28;20273;-69
2024/03/31 01:49:17;;;;;;;18.23;3.67;;;;;;;11.75;62.80;94543.00;4959959;28;20607;-70
2024/03/31 01:51:42;;;;;;;18.00;3.93;;;;;;;11.81;62.45;94545.16;4965114;28;20212;-68
2024/03/31 01:54:08;;;;;;;10.27;3.67;;;;;;;11.16;63.82;94541.41;4964901;28;20297;-69
2024/03/31 01:56:33;;;;;;;11.37;3.20;;;;;;;11.21;63.96;94543.69;4949036;28;20185;-71
2024/03/31 01:59:01;;;;;;;12.03;3.27;;;;;;;11.28;64.16;94538.81;4951216;28;20224;-71
2024/03/31 02:01:27;;;;;;;18.83;3.50;;;;;;;11.51;62.96;94521.28;4971524;28;20206;-71
2024/03/31 02:03:52;;;;;;;9.30;3.33;;;;;;;11.75;62.66;94531.66;4960070;28;20475;-69
2024/03/31 02:06:18;;;;;;;12.53;3.87;;;;;;;11.86;62.28;94543.00;4967226;28;20193;-70
2024/03/31 02:08:43;;;;;;;18.33;4.40;;;;;;;11.89;62.33;94570.88;4966263;28;20263;-70
2024/03/31 02:11:08;;;;;;;15.17;4.20;;;;;;;11.74;62.45;94564.16;4959812;28;20221;-69
2024/03/31 02:13:34;;;;;;;13.70;4.07;;;;;;;11.59;63.64;94556.50;4957372;28;20185;-71
2024/03/31 02:15:59;;;;;;;12.77;3.60;;;;;;;11.64;62.93;94556.97;4962113;28;20272;-69
2024/03/31 02:18:24;;;;;;;10.50;4.33;;;;;;;11.58;62.98;94560.09;4963149;28;20237;-69
2024/03/31 02:20:50;;;;;;;15.00;3.47;;;;;;;11.72;62.45;94572.16;4961831;28;20289;-70
2024/03/31 02:23:15;;;;;;;16.63;3.70;;;;;;;11.48;63.15;94589.81;4996516;28;20267;-69
2024/03/31 02:25:41;;;;;;;17.93;3.70;;;;;;;11.64;63.56;94590.28;4966354;28;20177;-69
2024/03/31 02:28:06;;;;;;;15.30;4.07;;;;;;;11.56;63.40;94577.75;4960742;28;20659;-71
2024/03/31 02:30:32;;;;;;;16.40;3.87;;;;;;;11.28;63.96;94570.31;4964494;28;20232;-71
2024/03/31 02:32:58;;;;;;;11.80;3.10;;;;;;;10.91;65.82;94584.41;4959318;28;20210;-71
2024/03/31 02:35:23;;;;;;;17.03;4.77;;;;;;;11.26;65.08;94574.84;4951445;28;20190;-70
2024/03/31 02:37:49;;;;;;;11.00;3.83;;;;;;;11.26;64.92;94572.22;4955068;28;20193;-71
2024/03/31 02:40:15;;;;;;;12.97;4.37;;;;;;;11.36;64.41;94568.78;4960657;28;20205;-69
2024/03/31 02:42:41;;;;;;;20.63;4.30;;;;;;;10.99;65.89;94561.06;4965937;28;20186;-70
2024/03/31 02:45:07;;;;;;;15.03;3.80;;;;;;;11.26;65.22;94559.94;4965988;28;20440;-70
2024/03/31 02:47:33;;;;;;;19.47;5.00;;;;;;;11.19;64.87;94556.09;4957170;28;20441;-71
2024/03/31 02:49:58;;;;;;;15.53;4.00;;;;;;;11.23;64.63;94554.91;4958325;28;20626;-71
2024/03/31 02:52:23;;;;;;;16.97;4.37;;;;;;;11.35;64.52;94553.16;4961974;28;20202;-70
2024/03/31 02:54:49;;;;;;;23.20;6.30;;;;;;;11.31;65.16;94533.31;4963270;28;20269;-69
2024/03/31 02:57:14;;;;;;;12.30;3.73;;;;;;;11.29;65.18;94533.44;4967707;28;20177;-70
2024/03/31 02:59:39;;;;;;;20.87;5.90;;;;;;;11.12;65.28;94541.75;4957290;28;20181;-68
2024/03/31 03:02:05;;;;;;;15.00;4.17;;;;;;;10.85;66.49;94537.66;4956792;28;20186;-71
2024/03/31 03:04:30;;;;;;;19.13;4.57;;;;;;;10.97;65.89;94533.25;4964575;28;20181;-71
2024/03/31 03:06:56;;;;;;;14.67;4.00;;;;;;;11.02;65.77;94523.25;4966101;28;20192;-68
2024/03/31 03:09:22;;;;;;;12.30;4.90;;;;;;;10.99;65.32;94515.63;4955499;28;20182;-71
2024/03/31 03:11:47;;;;;;;19.20;3.90;;;;;;;10.91;66.04;94515.34;4966008;28;20217;-69
2024/03/31 03:14:13;;;;;;;8.57;4.13;;;;;;;10.91;66.26;94516.19;4957934;28;20472;-70
2024/03/31 03:16:39;;;;;;;20.53;4.30;;;;;;;10.85;66.20;94513.19;4965341;28;20197;-70
2024/03/31 03:19:04;;;;;;;13.77;4.37;;;;;;;10.40;68.04;94507.81;4967439;28;20596;-69
2024/03/31 03:21:29;;;;;;;20.03;4.37;;;;;;;10.59;67.20;94514.19;4953608;28;20217;-71
2024/03/31 03:23:55;;;;;;;12.63;4.23;;;;;;;10.72;66.53;94508.84;4967466;28;20652;-70
2024/03/31 03:26:20;;;;;;;14.83;3.40;;;;;;;10.67;66.94;94510.97;4968966;28;20185;-70
2024/03/31 03:28:46;;;;;;;16.40;4.63;;;;;;;10.83;66.07;94515.09;4962381;28;20205;-71
2024/03/31 03:31:12;;;;;;;11.23;4.17;;;;;;;10.84;66.12;94519.38;4958532;28;20292;-71
2024/03/31 03:33:38;;;;;;;17.73;4.70;;;;;;;10.89;65.83;94510.22;4960072;28;20598;-71
2024/03/31 03:36:07;;;;;;;25.43;5.27;;;;;;;10.87;65.69;94511.31;4958860;28;20503;-70
2024/03/31 03:38:32;;;;;;;18.70;5.27;;;;;;;10.77;65.94;94512.00;4968221;28;21133;-71
2024/03/31 03:40:58;;;;;;;11.00;3.60;;;;;;;10.77;66.20;94509.38;4969947;28;20464;-69
2024/03/31 03:43:25;;;;;;;14.30;5.30;;;;;;;10.66;66.24;94505.88;4973465;28;20197;-71
2024/03/31 03:45:51;;;;;;;22.70;5.10;;;;;;;10.57;66.81;94502.97;4966312;28;20232;-71
2024/03/31 03:48:17;;;;;;;21.20;3.60;;;;;;;10.63;66.97;94495.59;4963650;28;20444;-71
2024/03/31 03:50:42;;;;;;;10.30;3.07;;;;;;;10.65;66.31;94497.13;4963379;28;20831;-70
2024/03/31 03:53:08;;;;;;;15.60;4.37;;;;;;;10.29;67.19;94498.09;4970797;28;20181;-71
2024/03/31 03:55:33;;;;;;;12.10;4.57;;;;;;;10.20;67.73;94496.94;4980929;28;20213;-71
2024/03/31 03:57:59;;;;;;;26.97;4.50;;;;;;;10.01;68.34;94501.84;4979730;28;20272;-70
2024/03/31 04:00:24;;;;;;;22.07;3.87;;;;;;;9.93;68.63;94498.00;4970020;28;20205;-70
2024/03/31 04:02:49;;;;;;;11.70;5.10;;;;;;;9.82;68.87;94505.78;4966364;28;20558;-70
2024/03/31 04:05:15;;;;;;;13.50;4.70;;;;;;;9.64;69.82;94505.31;4992501;28;20276;-70
2024/03/31 04:07:40;;;;;;;10.77;4.07;;;;;;;9.60;70.67;94518.72;4965778;28;20181;-68
2024/03/31 04:10:06;;;;;;;16.03;3.87;;;;;;;9.56;70.17;94518.09;4959891;28;20288;-70
2024/03/31 04:12:31;;;;;;;8.20;3.67;;;;;;;9.41;71.18;94524.41;4965242;28;20201;-71
2024/03/31 04:14:57;;;;;;;17.60;3.90;;;;;;;9.67;69.72;94517.34;4967172;28;20963;-71
2024/03/31 04:17:22;;;;;;;16.47;3.63;;;;;;;9.86;68.84;94525.56;4968245;28;20186;-70
2024/03/31 04:19:48;;;;;;;20.90;4.40;;;;;;;9.86;68.89;94528.19;4967091;28;20225;-70
2024/03/31 04:22:13;;;;;;;17.40;3.60;;;;;;;10.19;67.34;94529.34;4959672;28;20281;-70
2024/03/31 04:24:39;;;;;;;16.47;4.50;;;;;;;10.14;67.68;94540.16;4960561;28;20596;-70
2024/03/31 04:27:04;;;;;;;19.40;5.43;;;;;;;9.78;68.85;94538.41;4963169;28;20673;-69
2024/03/31 04:29:30;;;;;;;13.20;3.60;;;;;;;9.01;71.76;94548.06;4964989;28;20189;-71
2024/03/31 04:31:57;;;;;;;17.93;5.20;;;;;;;9.56;69.17;94546.91;4962609;28;20217;-70
2024/03/31 04:34:26;;;;;;;26.17;4.60;;;;;;;9.81;68.69;94534.72;4954338;28;20198;-69
2024/03/31 04:36:54;;;;;;;18.40;5.60;;;;;;;9.88;68.32;94543.81;4957851;28;20444;-70
2024/03/31 04:39:19;;;;;;;20.50;6.07;;;;;;;10.01;68.15;94541.97;4954281;28;20548;-70
2024/03/31 04:41:45;;;;;;;19.13;4.63;;;;;;;10.01;67.54;94538.53;4965552;28;21039;-69
2024/03/31 04:44:11;;;;;;;21.30;6.50;;;;;;;9.51;69.43;94543.75;4963184;28;20189;-72
2024/03/31 04:46:36;;;;;;;16.27;4.40;;;;;;;9.70;69.39;94548.56;4952480;28;20189;-70
2024/03/31 04:49:04;;;;;;;12.27;4.53;;;;;;;10.07;67.62;94545.97;4961956;28;21198;-70
2024/03/31 04:51:30;;;;;;;11.67;4.20;;;;;;;9.87;68.13;94549.97;4958630;28;20218;-70
2024/03/31 04:53:56;;;;;;;51.80;8.10;;;;;;;9.94;67.42;94559.09;4965469;28;20787;-69
2024/03/31 04:56:21;;;;;;;17.87;4.80;;;;;;;9.79;67.68;94553.16;4963538;28;20198;-69
2024/03/31 04:58:48;;;;;;;29.83;6.80;;;;;;;9.83;67.63;94551.16;4969280;28;20214;-69
2024/03/31 05:01:13;;;;;;;17.83;4.10;;;;;;;9.64;68.09;94556.88;4956991;28;20237;-70
2024/03/31 05:03:39;;;;;;;23.50;7.20;;;;;;;9.63;68.43;94549.94;4961067;28;20575;-69
2024/03/31 05:06:04;;;;;;;23.50;4.23;;;;;;;9.79;67.81;94552.31;4967576;28;20251;-68
2024/03/31 05:08:30;;;;;;;16.33;6.20;;;;;;;9.76;68.12;94561.25;4982882;28;20265;-70
2024/03/31 05:10:59;;;;;;;28.57;6.67;;;;;;;9.69;68.10;94555.59;4979372;28;20207;-70
2024/03/31 05:13:27;;;;;;;11.63;3.50;;;;;;;9.60;68.47;94561.47;4978433;28;20650;-71
2024/03/31 05:15:59;;;;;;;20.20;3.80;;;;;;;9.49;68.98;94564.81;4973478;28;20457;-69
2024/03/31 05:18:25;;;;;;;20.20;6.70;;;;;;;9.49;68.61;94567.44;4975694;28;20544;-72
2024/03/31 05:20:58;;;;;;;18.40;5.40;;;;;;;9.52;69.11;94563.78;4974283;28;20520;-70
2024/03/31 05:23:24;;;;;;;32.00;5.40;;;;;;;9.61;68.83;94563.13;4968362;28;20193;-69
2024/03/31 05:25:50;;;;;;;86.77;10.60;;;;;;;9.84;67.60;94558.91;4968796;28;20484;-70
2024/03/31 05:28:16;;;;;;;49.53;6.73;;;;;;;9.84;67.79;94558.91;4986637;28;20253;-68
2024/03/31 05:30:41;;;;;;;27.47;6.17;;;;;;;9.92;67.80;94559.22;4982381;28;20425;-70
2024/03/31 05:33:07;;;;;;;78.67;11.80;;;;;;;9.88;67.67;94564.78;4990001;28;20558;-71
2024/03/31 05:35:32;;;;;;;29.03;5.63;;;;;;;9.95;67.49;94568.63;4986589;28;20241;-69
2024/03/31 05:37:58;;;;;;;11.33;3.40;;;;;;;10.13;66.45;94563.84;4970341;28;20213;-71
2024/03/31 05:40:23;;;;;;;16.33;3.67;;;;;;;10.06;66.58;94560.00;4977017;28;20212;-70
2024/03/31 05:42:48;;;;;;;10.53;2.90;;;;;;;10.17;66.38;94566.16;4986288;28;20193;-70
2024/03/31 05:45:14;;;;;;;16.20;6.30;;;;;;;10.15;66.47;94569.81;4968486;28;20276;-70
2024/03/31 05:47:39;;;;;;;80.60;10.60;;;;;;;10.27;65.67;94571.56;4958902;28;20181;-71
2024/03/31 05:50:06;;;;;;;16.47;4.03;;;;;;;10.07;66.55;94575.63;4989138;28;20961;-70
2024/03/31 05:52:31;;;;;;;14.10;4.43;;;;;;;8.96;70.13;94586.78;4963292;28;20206;-70
2024/03/31 05:54:57;;;;;;;16.17;8.53;;;;;;;9.04;70.64;94590.53;4961995;28;20448;-69
2024/03/31 05:57:22;;;;;;;15.40;4.67;;;;;;;9.30;69.68;94587.97;4960822;28;20193;-69
2024/03/31 05:59:48;;;;;;;18.03;4.10;;;;;;;9.68;68.18;94585.31;4962335;28;20219;-71
2024/03/31 06:02:13;;;;;;;16.97;4.27;;;;;;;9.91;67.43;94572.41;4966099;28;20279;-70
2024/03/31 06:04:38;;;;;;;48.93;7.20;;;;;;;10.14;66.40;94565.53;4965611;28;20268;-68
2024/03/31 06:07:04;;;;;;;24.20;4.33;;;;;;;10.15;66.57;94560.16;4965455;28;20180;-70
2024/03/31 06:09:29;;;;;;;15.87;4.20;;;;;;;10.14;66.22;94553.28;4956616;28;20170;-70
2024/03/31 06:11:55;;;;;;;15.93;3.33;;;;;;;10.11;66.25;94560.50;4968114;28;20209;-69
2024/03/31 06:14:20;;;;;;;23.93;3.97;;;;;;;10.25;65.48;94551.66;4965541;28;20181;-70
2024/03/31 06:16:45;;;;;;;8.57;3.50;;;;;;;10.21;65.55;94543.19;4960627;28;20244;-69
2024/03/31 06:19:11;;;;;;;16.13;3.70;;;;;;;10.27;64.79;94539.28;4965367;28;20185;-68
2024/03/31 06:21:37;;;;;;;14.83;4.53;;;;;;;10.26;65.18;94540.22;4965943;28;20197;-69
2024/03/31 06:24:03;;;;;;;14.77;4.40;;;;;;;9.90;66.27;94547.16;4964783;28;20205;-69
2024/03/31 06:26:28;;;;;;;25.23;6.23;;;;;;;9.31;69.07;94539.91;4956502;28;20474;-69
2024/03/31 06:28:53;;;;;;;16.47;4.50;;;;;;;9.38;68.96;94530.69;4963273;28;20321;-68
2024/03/31 06:31:19;;;;;;;15.40;3.37;;;;;;;9.42;68.68;94528.69;4969033;28;20197;-70
2024/03/31 06:33:44;;;;;;;21.27;4.93;;;;;;;9.36;68.42;94532.59;4975326;28;20667;-71
2024/03/31 06:36:10;;;;;;;14.13;4.77;;;;;;;9.17;69.52;94545.25;4970563;28;20185;-69
2024/03/31 06:38:35;;;;;;;11.90;3.80;;;;;;;9.35;69.86;94536.13;4960472;28;20280;-69
2024/03/31 06:41:00;;;;;;;31.53;6.60;;;;;;;9.67;67.74;94531.28;4970125;28;21054;-68
2024/03/31 06:43:26;;;;;;;24.00;6.30;;;;;;;9.63;68.42;94518.50;4971656;28;20668;-67
2024/03/31 06:45:53;;;;;;;14.00;5.67;;;;;;;9.78;67.94;94512.19;4967547;28;20236;-68
2024/03/31 06:48:18;;;;;;;14.63;5.40;;;;;;;10.16;66.62;94500.75;4968487;28;20184;-65
2024/03/31 06:50:43;;;;;;;15.57;5.40;;;;;;;10.14;66.31;94510.50;4969750;28;20456;-66
2024/03/31 06:53:09;;;;;;;55.90;10.10;;;;;;;10.40;66.00;94515.66;4970038;28;20656;-69
2024/03/31 06:55:34;;;;;;;29.60;7.33;;;;;;;10.63;65.29;94520.06;4971265;28;20177;-66
2024/03/31 06:57:59;;;;;;;55.23;9.67;;;;;;;10.60;64.22;94530.75;4964672;28;20181;-69
2024/03/31 07:00:25;;;;;;;14.47;4.60;;;;;;;10.67;64.30;94526.72;4970063;28;20201;-69
2024/03/31 07:02:50;;;;;;;17.80;4.83;;;;;;;10.81;63.46;94515.19;4959807;28;20224;-70
2024/03/31 07:05:16;;;;;;;12.37;5.33;;;;;;;10.96;63.44;94519.31;4969543;28;20563;-68
2024/03/31 07:07:41;;;;;;;14.73;5.70;;;;;;;11.17;63.01;94513.38;4966785;28;20185;-70
2024/03/31 07:10:07;;;;;;;15.53;4.80;;;;;;;10.88;63.35;94518.22;4963720;28;20204;-68
2024/03/31 07:12:32;;;;;;;17.73;5.03;;;;;;;10.70;64.64;94517.78;4968455;28;20300;-69
2024/03/31 07:14:58;;;;;;;17.40;5.67;;;;;;;10.57;65.75;94504.75;4966715;28;20264;-68
2024/03/31 07:17:23;;;;;;;20.83;5.83;;;;;;;10.24;67.11;94516.75;4967587;28;20217;-69
2024/03/31 07:19:48;;;;;;;25.60;6.87;;;;;;;10.44;67.12;94512.72;4971358;28;20193;-69
2024/03/31 07:22:14;;;;;;;14.50;5.30;;;;;;;10.32;67.10;94517.06;4972864;28;20182;-69
2024/03/31 07:24:39;;;;;;;20.30;6.97;;;;;;;10.38;67.58;94494.78;4959805;28;20173;-70
2024/03/31 07:27:05;;;;;;;20.03;7.10;;;;;;;10.89;65.97;94489.25;4969609;28;20252;-69
2024/03/31 07:29:31;;;;;;;31.50;8.30;;;;;;;10.79;66.33;94494.34;4964934;28;20783;-69
2024/03/31 07:31:56;;;;;;;10.53;5.73;;;;;;;10.89;65.41;94485.75;4968301;28;20655;-68
2024/03/31 07:34:22;;;;;;;22.10;6.10;;;;;;;10.52;67.22;94493.78;4967089;28;20437;-69
2024/03/31 07:36:47;;;;;;;13.80;4.93;;;;;;;10.99;65.82;94484.94;4966166;28;20661;-68
2024/03/31 07:39:13;;;;;;;22.33;5.57;;;;;;;11.05;65.41;94483.63;4967900;28;20197;-69
2024/03/31 07:41:39;;;;;;;25.10;6.00;;;;;;;10.80;65.78;94484.69;4968635;28;20222;-69
2024/03/31 07:44:05;;;;;;;12.20;4.20;;;;;;;10.31;66.93;94480.47;4969540;28;20427;-68
2024/03/31 07:46:31;;;;;;;18.60;5.57;;;;;;;10.23;67.83;94477.53;4968822;28;20185;-69
2024/03/31 07:48:57;;;;;;;20.57;4.60;;;;;;;10.43;67.06;94476.09;4968507;28;20660;-68
2024/03/31 07:51:22;;;;;;;15.40;5.03;;;;;;;10.41;67.19;94480.63;4958215;28;20468;-69
2024/03/31 07:53:47;;;;;;;18.73;4.60;;;;;;;10.21;67.52;94496.00;4962623;28;20178;-67
2024/03/31 07:56:13;;;;;;;8.70;3.63;;;;;;;10.43;67.49;94494.47;4963483;28;20200;-69
2024/03/31 07:58:38;;;;;;;13.43;4.43;;;;;;;10.75;66.59;94481.56;4969033;28;20216;-68
2024/03/31 08:01:04;;;;;;;21.07;4.43;;;;;;;11.21;65.96;94483.31;4967300;28;20563;-67
2024/03/31 08:03:29;;;;;;;16.03;5.07;;;;;;;11.54;64.42;94485.09;4968239;28;20213;-69
2024/03/31 08:05:55;;;;;;;11.40;6.50;;;;;;;12.68;68.12;94475.97;4959279;28;20236;-70
2024/03/31 08:08:20;;;;;;;21.00;5.20;;;;;;;12.33;61.47;94471.84;4968704;28;20181;-69
2024/03/31 08:10:46;;;;;;;14.83;4.97;;;;;;;12.04;61.91;94485.53;4967384;28;20209;-69
2024/03/31 08:13:12;;;;;;;18.87;4.97;;;;;;;11.48;63.01;94500.50;4965714;28;20217;-70
2024/03/31 08:15:40;;;;;;;15.80;4.63;;;;;;;11.56;63.86;94509.47;4968362;28;20177;-69
2024/03/31 08:18:06;;;;;;;19.20;4.70;;;;;;;11.82;63.69;94522.34;4969341;28;20195;-68
2024/03/31 08:20:31;;;;;;;11.43;4.57;;;;;;;11.96;63.53;94514.22;4968827;28;20508;-70
2024/03/31 08:22:59;;;;;;;18.03;5.80;;;;;;;12.23;62.63;94515.59;4968865;28;20182;-68
2024/03/31 08:25:24;;;;;;;17.47;4.30;;;;;;;11.89;63.08;94513.06;4968721;28;20177;-68
2024/03/31 08:27:50;;;;;;;14.23;5.33;;;;;;;12.22;61.41;94508.69;4967542;28;20928;-68
2024/03/31 08:30:15;;;;;;;12.07;3.80;;;;;;;12.50;60.70;94492.31;4968694;28;20328;-68
2024/03/31 08:32:41;;;;;;;18.20;4.33;;;;;;;12.52;61.16;94483.47;4968677;28;20203;-70
2024/03/31 08:35:06;;;;;;;19.20;4.00;;;;;;;12.61;59.59;94485.34;4968545;28;20184;-68
2024/03/31 08:37:32;;;;;;;23.30;5.17;;;;;;;12.52;60.13;94483.47;4968882;28;20188;-69
2024/03/31 08:39:57;;;;;;;14.77;4.50;;;;;;;12.60;59.82;94479.25;4968519;28;20884;-70
2024/03/31 08:42:38;;;;;;;16.73;4.50;;;;;;;13.32;57.85;94470.59;4968182;28;20535;-67
2024/03/31 08:45:05;;;;;;;14.73;3.80;;;;;;;12.84;58.04;94481.63;4968319;28;20724;-69
2024/03/31 08:47:34;;;;;;;19.07;4.50;;;;;;;12.56;60.11;94482.25;4968581;28;21350;-69
2024/03/31 08:50:00;;;;;;;19.63;4.03;;;;;;;13.52;58.17;94475.94;4968328;28;20433;-68
2024/03/31 08:52:26;;;;;;;16.80;4.17;;;;;;;13.64;57.69;94471.41;4968217;28;20457;-68
2024/03/31 08:54:55;;;;;;;8.73;3.90;;;;;;;14.68;54.20;94458.69;4968666;28;20184;-69
2024/03/31 08:57:21;;;;;;;15.20;4.20;;;;;;;14.91;52.75;94459.22;4968876;28;20850;-70
2024/03/31 08:59:48;;;;;;;16.40;4.37;;;;;;;15.06;52.99;94455.16;4968892;28;20417;-70
2024/03/31 09:02:17;;;;;;;20.23;3.97;;;;;;;14.70;52.96;94468.13;4968539;28;20209;-70
2024/03/31 09:04:43;;;;;;;20.70;3.90;;;;;;;15.28;52.35;94461.91;4968047;28;20913;-70
2024/03/31 09:07:08;;;;;;;18.37;4.03;;;;;;;15.64;51.18;94457.63;4968234;28;20412;-69
2024/03/31 09:09:34;;;;;;;19.73;4.23;;;;;;;14.91;51.94;94449.50;4967769;28;20174;-68
2024/03/31 09:12:00;;;;;;;13.83;3.50;;;;;;;14.87;51.28;94445.47;4968071;28;20214;-68
2024/03/31 09:14:26;;;;;;;21.77;4.27;;;;;;;15.23;51.95;94453.59;4967558;28;20219;-68
2024/03/31 09:16:51;;;;;;;15.83;4.60;;;;;;;15.09;52.27;94449.59;4967545;28;20445;-69
2024/03/31 09:19:17;;;;;;;19.97;4.23;;;;;;;14.52;53.64;94451.28;4967393;28;20256;-70
2024/03/31 09:21:46;;;;;;;18.13;3.93;;;;;;;15.54;52.22;94442.78;4967231;28;20627;-69
2024/03/31 09:24:13;;;;;;;25.47;5.80;;;;;;;16.11;50.82;94443.50;4967666;28;20173;-68
2024/03/31 09:26:39;;;;;;;15.33;4.73;;;;;;;16.57;48.79;94428.38;4967123;28;20427;-68
2024/03/31 09:29:05;;;;;;;17.13;4.70;;;;;;;16.96;47.97;94429.88;4967563;28;20409;-69
2024/03/31 09:31:31;;;;;;;19.07;4.80;;;;;;;15.94;49.77;94433.69;4967584;28;20476;-67
2024/03/31 09:33:56;;;;;;;12.60;4.83;;;;;;;15.76;51.05;94423.91;4967892;28;20240;-66
2024/03/31 09:36:21;;;;;;;19.23;4.37;;;;;;;15.70;51.39;94423.63;4968259;28;20183;-67
2024/03/31 09:38:47;;;;;;;19.37;5.13;;;;;;;16.27;49.78;94417.16;4967855;28;20224;-69
2024/03/31 09:41:12;;;;;;;19.63;5.17;;;;;;;15.41;51.56;94435.19;4967439;28;20231;-69
2024/03/31 09:43:38;;;;;;;24.07;4.63;;;;;;;14.78;53.00;94435.75;4967510;28;20186;-68
2024/03/31 09:46:06;;;;;;;15.67;5.07;;;;;;;15.11;52.53;94437.06;4967517;28;20288;-68
2024/03/31 09:48:34;;;;;;;14.83;4.47;;;;;;;15.45;52.23;94420.69;4967196;28;20297;-70
2024/03/31 09:51:12;;;;;;;15.73;4.33;;;;;;;15.53;51.11;94419.97;4967431;28;20543;-67
2024/03/31 09:53:40;;;;;;;20.27;5.70;;;;;;;16.40;49.75;94416.81;4967204;28;20782;-68
2024/03/31 09:56:08;;;;;;;21.07;5.00;;;;;;;15.83;50.77;94421.53;4968073;28;20537;-69
2024/03/31 09:58:36;;;;;;;20.23;4.80;;;;;;;14.72;53.26;94423.13;4968120;28;20416;-69
2024/03/31 10:01:05;;;;;;;25.13;5.60;;;;;;;15.49;51.53;94419.41;4967510;28;20429;-69
2024/03/31 10:03:37;;;;;;;13.50;4.43;;;;;;;16.24;50.08;94411.38;4967913;28;20483;-69
2024/03/31 10:06:03;;;;;;;18.10;5.00;;;;;;;15.83;50.70;94413.59;4966892;28;20413;-69
2024/03/31 10:08:31;;;;;;;13.83;4.27;;;;;;;15.89;50.74;94402.41;4967745;28;20421;-68
2024/03/31 10:10:58;;;;;;;19.10;4.37;;;;;;;15.99;50.24;94404.97;4967413;28;20916;-67
2024/03/31 10:13:26;;;;;;;22.40;9.30;;;;;;;15.67;50.88;94403.63;4967299;28;20432;-70
2024/03/31 10:15:52;;;;;;;31.13;5.80;;;;;;;15.50;52.35;94393.84;4967460;28;20443;-69
2024/03/31 10:18:18;;;;;;;15.90;4.90;;;;;;;15.24;52.24;94394.50;4968238;28;20404;-69
2024/03/31 10:20:45;;;;;;;18.50;4.77;;;;;;;15.01;52.97;94386.91;4968653;28;20440;-70
2024/03/31 10:23:12;;;;;;;21.77;5.43;;;;;;;15.06;54.16;94388.28;4969719;28;20169;-72
2024/03/31 10:25:38;;;;;;;18.43;5.50;;;;;;;14.95;54.38;94399.84;4969714;28;20464;-70
2024/03/31 10:28:03;;;;;;;18.30;5.10;;;;;;;15.08;53.68;94391.63;4971191;28;20413;-70
2024/03/31 10:30:30;;;;;;;17.60;4.57;;;;;;;15.02;54.29;94385.94;4970030;28;20209;-69
2024/03/31 10:32:56;;;;;;;13.47;4.30;;;;;;;14.78;54.79;94385.56;4975126;28;20213;-68
2024/03/31 10:35:23;;;;;;;16.37;4.33;;;;;;;15.09;54.47;94380.06;4977709;28;20417;-70
2024/03/31 10:37:48;;;;;;;21.20;4.60;;;;;;;15.16;54.40;94389.91;4976932;28;20185;-69
2024/03/31 10:40:15;;;;;;;19.33;5.07;;;;;;;15.00;54.70;94379.97;4978566;28;20437;-70
2024/03/31 10:42:41;;;;;;;11.37;4.10;;;;;;;15.03;54.59;94369.13;4978662;28;20166;-68
2024/03/31 10:45:08;;;;;;;13.73;4.77;;;;;;;15.02;54.51;94372.75;4979754;28;20428;-69
2024/03/31 10:47:35;;;;;;;28.67;8.00;;;;;;;15.18;54.26;94379.22;4973078;28;20503;-69
2024/03/31 10:50:04;;;;;;;23.33;6.87;;;;;;;15.14;54.18;94388.38;4966743;28;20433;-70
2024/03/31 10:52:32;;;;;;;14.63;5.13;;;;;;;14.77;54.49;94390.03;4966827;28;20987;-68
2024/03/31 10:54:59;;;;;;;15.27;4.07;;;;;;;14.11;56.76;94385.47;4967213;28;20408;-68
2024/03/31 10:57:34;;;;;;;22.33;5.33;;;;;;;14.14;56.80;94387.81;4967122;28;20437;-69
2024/03/31 11:00:01;;;;;;;22.37;6.10;;;;;;;14.40;56.45;94395.19;4967351;28;20424;-69
2024/03/31 11:02:27;;;;;;;19.33;4.37;;;;;;;14.30;56.97;94386.44;4967118;28;20412;-67
2024/03/31 11:05:04;;;;;;;17.83;4.97;;;;;;;14.17;56.93;94392.84;4967466;28;20419;-70
2024/03/31 11:07:40;;;;;;;13.73;5.40;;;;;;;14.42;56.61;94390.59;4968201;28;20891;-70
2024/03/31 11:10:09;;;;;;;18.13;4.70;;;;;;;14.91;55.43;94386.13;4967751;28;20428;-68
2024/03/31 11:12:35;;;;;;;23.97;5.67;;;;;;;15.26;54.20;94374.03;4967770;28;20468;-68
2024/03/31 11:15:01;;;;;;;22.53;6.00;;;;;;;15.09;54.68;94372.97;4968636;28;20417;-70
2024/03/31 11:17:29;;;;;;;26.37;5.60;;;;;;;15.21;54.36;94374.47;4970995;28;20646;-69
2024/03/31 11:19:58;;;;;;;24.53;6.50;;;;;;;14.91;55.17;94374.72;4979897;28;20229;-69